Time;durP1;ratioP1;P1;durP2;ratioP2;P2;SDS_P1;SDS_P2;PMS_P1;PMS_P2;Temp;Humidity;BMP_temperature;BMP_pressure;BME280_temperature;BME280_humidity;BME280_pressure;Samples;Min_cycle;Max_cycle;Signal;HPM_P1;HPM_P2
2023/03/30 00:00:52;;;;;;;;;;;;;;;7.93;88.34;100889.34;4964304;28;19987;-73
2023/03/30 00:03:18;;;;;;;;;;;;;;;7.92;88.49;100887.69;4948337;28;19970;-74
2023/03/30 00:05:45;;;;;;;;;;;;;;;7.97;88.37;100886.97;4957375;28;19942;-72
2023/03/30 00:08:13;;;;;;;;;;;;;;;7.92;88.25;100893.88;4960505;28;19941;-72
2023/03/30 00:10:39;;;;;;;;;;;;;;;7.89;88.21;100894.34;4957226;28;19961;-73
2023/03/30 00:13:06;;;;;;;;;;;;;;;7.88;88.41;100892.72;4956027;28;20012;-73
2023/03/30 00:15:32;;;;;;;;;;;;;;;7.89;88.64;100891.69;4964582;28;20742;-74
2023/03/30 00:17:58;;;;;;;;;;;;;;;7.96;88.39;100888.03;4953007;28;19986;-73
2023/03/30 00:20:23;;;;;;;;;;;;;;;7.96;88.27;100877.34;4956498;28;19960;-74
2023/03/30 00:22:49;;;;;;;;;;;;;;;8.00;88.42;100868.63;4959144;28;19947;-74
2023/03/30 00:25:16;;;;;;;;;;;;;;;7.99;88.58;100866.19;4942344;28;19936;-73
2023/03/30 00:28:02;;;;;;;;;;;;;;;8.03;88.47;100867.31;4941080;28;19987;-73
2023/03/30 00:30:31;;;;;;;;;;;;;;;8.09;88.26;100863.63;4930249;28;19958;-73
2023/03/30 00:32:57;;;;;;;;;;;;;;;8.01;88.37;100864.09;4930930;28;20035;-73
2023/03/30 00:35:25;;;;;;;;;;;;;;;8.05;88.34;100859.84;4943352;28;20046;-73
2023/03/30 00:37:53;;;;;;;;;;;;;;;8.00;88.44;100852.63;4957584;28;19944;-72
2023/03/30 00:40:19;;;;;;;;;;;;;;;7.99;88.48;100850.19;4939051;28;20048;-73
2023/03/30 00:42:45;;;;;;;;;;;;;;;8.03;88.44;100848.63;4955510;28;20027;-73
2023/03/30 00:45:16;;;;;;;;;;;;;;;7.97;88.61;100838.97;4935959;28;20476;-71
2023/03/30 00:47:50;;;;;;;;;;;;;;;7.99;88.69;100831.50;4946558;28;19951;-72
2023/03/30 00:50:20;;;;;;;;;;;;;;;7.97;89.11;100825.63;4959688;28;19950;-72
2023/03/30 00:52:47;;;;;;;;;;;;;;;7.93;88.79;100817.34;4945687;28;19934;-72
2023/03/30 00:55:12;;;;;;;;;;;;;;;7.92;89.07;100811.19;4978014;28;20451;-73
2023/03/30 00:57:41;;;;;;;;;;;;;;;7.88;88.65;100807.41;4961708;28;19939;-73
2023/03/30 01:00:09;;;;;;;;;;;;;;;7.86;89.30;100796.19;4959386;28;20098;-72
2023/03/30 01:02:38;;;;;;;;;;;;;;;7.91;89.16;100790.91;4956932;28;20028;-73
2023/03/30 01:05:05;;;;;;;;;;;;;;;7.92;89.11;100781.88;4960597;28;20054;-73
2023/03/30 01:07:31;;;;;;;;;;;;;;;7.86;89.12;100777.53;4962483;28;20325;-73
2023/03/30 01:09:57;;;;;;;;;;;;;;;7.85;89.21;100775.09;4958619;28;19967;-72
2023/03/30 01:12:23;;;;;;;;;;;;;;;7.91;89.13;100764.22;4955663;28;19951;-73
2023/03/30 01:14:50;;;;;;;;;;;;;;;7.91;89.00;100761.56;4956679;28;19954;-73
2023/03/30 01:17:25;;;;;;;;;;;;;;;7.89;89.26;100755.69;4960183;28;19938;-73
2023/03/30 01:20:07;;;;;;;;;;;;;;;7.88;88.93;100759.41;4976711;28;19953;-73
2023/03/30 01:23:00;;;;;;;;;;;;;;;7.88;89.36;100753.28;4940588;28;19954;-73
2023/03/30 01:25:45;;;;;;;;;;;;;;;7.91;89.07;100753.56;4960029;28;19938;-72
2023/03/30 01:28:29;;;;;;;;;;;;;;;7.90;89.26;100743.97;4960528;28;19948;-74
2023/03/30 01:31:11;;;;;;;;;;;;;;;7.85;89.29;100743.91;4938034;28;20093;-73
2023/03/30 01:33:56;;;;;;;;;;;;;;;7.88;89.19;100732.75;4955894;28;19954;-74
2023/03/30 01:36:21;;;;;;;;;;;;;;;7.85;89.71;100732.44;4947349;28;19945;-73
2023/03/30 01:39:14;;;;;;;;;;;;;;;7.95;89.05;100740.53;4946402;28;19939;-73
2023/03/30 01:42:07;;;;;;;;;;;;;;;7.96;89.16;100738.69;4944008;28;19948;-73
2023/03/30 01:44:40;;;;;;;;;;;;;;;7.96;89.11;100734.16;4929075;28;19941;-72
2023/03/30 01:47:08;;;;;;;;;;;;;;;7.90;89.31;100725.28;4944309;28;19971;-71
2023/03/30 01:50:04;;;;;;;;;;;;;;;7.91;89.34;100732.22;4928737;28;19955;-74
2023/03/30 01:52:59;;;;;;;;;;;;;;;7.93;89.32;100713.34;4942678;28;20322;-71
2023/03/30 01:55:35;;;;;;;;;;;;;;;7.92;89.33;100709.88;4948799;28;19954;-72
2023/03/30 01:58:14;;;;;;;;;;;;;;;7.92;89.69;100703.69;4933939;28;19976;-74
2023/03/30 02:00:48;;;;;;;;;;;;;;;7.88;89.65;100687.41;4931164;28;19956;-74
2023/03/30 02:03:22;;;;;;;;;;;;;;;7.87;90.06;100680.47;4942111;28;19947;-73
2023/03/30 02:05:55;;;;;;;;;;;;;;;7.87;90.00;100667.16;4939177;28;19995;-72
2023/03/30 02:08:23;;;;;;;;;;;;;;;7.81;90.26;100676.16;4929292;28;20543;-71
2023/03/30 02:10:50;;;;;;;;;;;;;;;7.77;90.21;100675.03;4960785;28;20006;-74
2023/03/30 02:13:16;;;;;;;;;;;;;;;7.78;90.58;100657.97;4935288;28;19930;-72
2023/03/30 02:15:44;;;;;;;;;;;;;;;7.81;90.35;100659.34;4960055;28;20443;-71
2023/03/30 02:18:11;;;;;;;;;;;;;;;7.76;90.66;100641.44;4959110;28;19977;-72
2023/03/30 02:20:39;;;;;;;;;;;;;;;7.69;90.85;100659.50;4957617;28;19995;-74
2023/03/30 02:23:05;;;;;;;;;;;;;;;7.70;91.00;100645.13;4979093;28;19938;-72
2023/03/30 02:25:32;;;;;;;;;;;;;;;7.71;90.68;100646.72;4931045;28;20302;-74
2023/03/30 02:27:58;;;;;;;;;;;;;;;7.73;90.67;100627.84;4945837;28;19943;-72
2023/03/30 02:30:24;;;;;;;;;;;;;;;7.72;90.65;100626.19;4953567;28;19960;-72
2023/03/30 02:32:55;;;;;;;;;;;;;;;7.64;90.95;100638.94;4918310;28;20042;-75
2023/03/30 02:35:29;;;;;;;;;;;;;;;7.62;91.12;100634.91;4958540;28;19979;-73
2023/03/30 02:38:18;;;;;;;;;;;;;;;7.61;91.31;100626.13;4940037;28;19949;-73
2023/03/30 02:40:50;;;;;;;;;;;;;;;7.63;91.11;100624.00;4979285;28;19953;-73
2023/03/30 02:43:16;;;;;;;;;;;;;;;7.63;90.91;100617.88;4956700;28;19943;-73
2023/03/30 02:45:47;;;;;;;;;;;;;;;7.65;90.99;100615.75;4970945;28;19938;-73
2023/03/30 02:48:21;;;;;;;;;;;;;;;7.66;91.05;100609.38;4939884;28;19938;-74
2023/03/30 02:51:01;;;;;;;;;;;;;;;7.71;90.98;100601.41;4945268;28;19957;-73
2023/03/30 02:54:00;;;;;;;;;;;;;;;7.75;90.81;100597.19;4917201;28;20066;-73
2023/03/30 02:56:52;;;;;;;;;;;;;;;7.72;90.75;100578.22;4960697;28;20429;-74
2023/03/30 02:59:41;;;;;;;;;;;;;;;7.71;90.69;100582.75;4956731;28;19958;-74
2023/03/30 03:02:16;;;;;;;;;;;;;;;7.68;91.09;100567.28;4963875;28;20086;-73
2023/03/30 03:04:46;;;;;;;;;;;;;;;7.63;91.00;100575.22;4930222;28;19936;-73
2023/03/30 03:07:23;;;;;;;;;;;;;;;7.56;91.36;100566.63;4942048;28;20028;-72
2023/03/30 03:09:49;;;;;;;;;;;;;;;7.52;91.38;100562.84;4960544;28;19964;-72
2023/03/30 03:12:15;;;;;;;;;;;;;;;7.56;91.57;100561.31;4946537;28;19947;-72
2023/03/30 03:14:42;;;;;;;;;;;;;;;7.49;91.58;100553.53;4960280;28;19959;-72
2023/03/30 03:17:07;;;;;;;;;;;;;;;7.54;91.43;100544.78;4961116;28;19944;-73
2023/03/30 03:19:37;;;;;;;;;;;;;;;7.42;91.64;100542.25;4959236;28;19971;-73
2023/03/30 03:22:06;;;;;;;;;;;;;;;7.37;91.72;100524.38;4964956;28;19950;-72
2023/03/30 03:24:37;;;;;;;;;;;;;;;7.32;91.92;100529.66;4965186;28;19960;-74
2023/03/30 03:27:26;;;;;;;;;;;;;;;7.22;92.40;100532.22;4965162;28;19945;-73
2023/03/30 03:30:05;;;;;;;;;;;;;;;7.20;92.33;100521.03;4962092;28;20004;-73
2023/03/30 03:32:37;;;;;;;;;;;;;;;7.15;92.64;100518.31;4961807;28;19945;-73
2023/03/30 03:35:03;;;;;;;;;;;;;;;7.17;92.71;100512.72;4982763;28;19954;-72
2023/03/30 03:37:30;;;;;;;;;;;;;;;7.18;92.82;100509.84;4968327;28;19956;-72
2023/03/30 03:39:55;;;;;;;;;;;;;;;7.15;92.66;100520.97;4933980;28;19958;-73
2023/03/30 03:42:21;;;;;;;;;;;;;;;7.13;92.95;100512.44;4965064;28;19940;-73
2023/03/30 03:44:58;;;;;;;;;;;;;;;7.17;92.60;100515.38;4962139;28;19940;-73
2023/03/30 03:47:24;;;;;;;;;;;;;;;7.28;92.57;100501.13;4944330;28;19955;-75
2023/03/30 03:49:50;;;;;;;;;;;;;;;7.40;92.34;100493.75;4955581;28;20326;-74
2023/03/30 03:52:16;;;;;;;;;;;;;;;7.39;92.40;100492.97;4962590;28;19942;-74
2023/03/30 03:54:41;;;;;;;;;;;;;;;7.37;92.59;100487.06;4961205;28;19965;-73
2023/03/30 03:57:07;;;;;;;;;;;;;;;7.41;92.28;100487.38;4930692;28;19945;-73
2023/03/30 03:59:34;;;;;;;;;;;;;;;7.45;92.46;100477.00;4941858;28;19946;-74
2023/03/30 04:01:59;;;;;;;;;;;;;;;7.52;91.87;100477.59;4962859;28;19952;-73
2023/03/30 04:04:25;;;;;;;;;;;;;;;7.51;91.76;100481.31;4958365;28;19990;-74
2023/03/30 04:06:53;;;;;;;;;;;;;;;7.49;91.73;100486.09;4942525;28;19964;-75
2023/03/30 04:09:20;;;;;;;;;;;;;;;7.48;91.87;100471.19;4940688;28;19961;-75
2023/03/30 04:12:04;;;;;;;;;;;;;;;7.55;91.79;100472.56;4954119;28;19938;-71
2023/03/30 04:14:49;;;;;;;;;;;;;;;7.53;91.50;100464.03;4975697;28;20334;-72
2023/03/30 04:17:35;;;;;;;;;;;;;;;7.48;91.92;100471.19;4959053;28;19938;-72
2023/03/30 04:20:22;;;;;;;;;;;;;;;7.50;91.73;100466.38;4953393;28;20508;-72
2023/03/30 04:22:56;;;;;;;;;;;;;;;7.49;91.60;100456.78;4928383;28;20040;-73
2023/03/30 04:25:40;;;;;;;;;;;;;;;7.49;91.56;100462.13;4963182;28;20413;-74
2023/03/30 04:28:28;;;;;;;;;;;;;;;7.48;91.61;100460.53;4951704;28;20674;-73
2023/03/30 04:31:17;;;;;;;;;;;;;;;7.51;91.62;100449.34;4962985;28;20043;-73
2023/03/30 04:34:01;;;;;;;;;;;;;;;7.49;91.41;100449.59;4964656;28;19948;-73
2023/03/30 04:36:34;;;;;;;;;;;;;;;7.49;91.50;100451.47;4979537;28;19957;-72
2023/03/30 04:39:22;;;;;;;;;;;;;;;7.48;91.49;100434.66;4949913;28;19956;-73
2023/03/30 04:42:05;;;;;;;;;;;;;;;7.43;91.84;100425.84;4962091;28;19938;-73
2023/03/30 04:45:07;;;;;;;;;;;;;;;7.43;91.73;100425.84;4954763;28;20469;-72
2023/03/30 04:47:51;;;;;;;;;;;;;;;7.37;91.87;100420.47;4943122;28;20410;-73
2023/03/30 04:50:22;;;;;;;;;;;;;;;7.33;92.09;100408.72;4947650;28;19956;-73
2023/03/30 04:53:18;;;;;;;;;;;;;;;7.36;91.76;100413.53;4942613;28;19937;-73
2023/03/30 04:56:03;;;;;;;;;;;;;;;7.35;91.95;100409.28;4961738;28;19938;-73
2023/03/30 04:58:41;;;;;;;;;;;;;;;7.35;91.94;100417.25;4942017;28;20684;-73
2023/03/30 05:01:40;;;;;;;;;;;;;;;7.33;92.02;100419.38;4959956;28;19938;-73
2023/03/30 05:04:32;;;;;;;;;;;;;;;7.45;91.61;100407.72;4948786;28;19957;-73
2023/03/30 05:07:31;;;;;;;;;;;;;;;7.42;91.78;100410.91;4957282;28;19974;-73
2023/03/30 05:09:59;;;;;;;;;;;;;;;7.48;91.82;100404.56;4943651;28;19959;-73
2023/03/30 05:12:47;;;;;;;;;;;;;;;7.45;91.56;100407.72;4946667;28;19941;-74
2023/03/30 05:15:31;;;;;;;;;;;;;;;7.51;91.71;100406.69;4961243;28;20330;-73
2023/03/30 05:18:29;;;;;;;;;;;;;;;7.56;91.09;100406.75;4962333;28;19947;-73
2023/03/30 05:21:06;;;;;;;;;;;;;;;7.54;91.28;100385.69;4958987;28;19948;-73
2023/03/30 05:23:57;;;;;;;;;;;;;;;7.57;90.84;100400.34;4958835;28;19934;-74
2023/03/30 05:26:42;;;;;;;;;;;;;;;7.55;91.03;100394.47;4959243;28;19942;-74
2023/03/30 05:29:13;;;;;;;;;;;;;;;7.59;90.91;100380.38;4955983;28;20361;-74
2023/03/30 05:32:06;;;;;;;;;;;;;;;7.72;90.37;100379.09;4940970;28;20310;-74
2023/03/30 05:34:43;;;;;;;;;;;;;;;7.77;90.31;100373.81;4959024;28;20043;-73
2023/03/30 05:37:19;;;;;;;;;;;;;;;7.77;90.67;100365.81;4961531;28;19939;-73
2023/03/30 05:39:58;;;;;;;;;;;;;;;7.83;90.65;100372.75;4956670;28;19949;-74
2023/03/30 05:43:03;;;;;;;;;;;;;;;7.87;90.07;100383.72;4913252;29;19945;-73
2023/03/30 05:45:47;;;;;;;;;;;;;;;7.83;90.23;100378.09;4940134;29;19938;-74
2023/03/30 05:48:51;;;;;;;;;;;;;;;7.85;90.22;100393.81;4957139;28;19951;-76
2023/03/30 05:51:31;;;;;;;;;;;;;;;7.88;90.41;100410.13;4954986;28;20009;-74
2023/03/30 05:54:05;;;;;;;;;;;;;;;7.84;90.64;100417.03;4952892;28;19956;-74
2023/03/30 05:56:46;;;;;;;;;;;;;;;7.81;90.58;100425.56;4960837;28;19945;-73
2023/03/30 05:59:20;;;;;;;;;;;;;;;7.77;90.54;100421.78;4933470;28;20368;-74
2023/03/30 06:02:13;;;;;;;;;;;;;;;7.81;90.70;100411.41;4949106;28;20465;-73
2023/03/30 06:04:39;;;;;;;;;;;;;;;7.87;90.53;100416.53;4950350;28;20393;-72
2023/03/30 06:07:06;;;;;;;;;;;;;;;7.97;90.70;100401.63;4960679;28;19948;-73
2023/03/30 06:09:32;;;;;;;;;;;;;;;7.96;90.47;100390.16;4956331;28;19959;-72
2023/03/30 06:12:01;;;;;;;;;;;;;;;8.05;91.08;100385.13;4963182;28;19940;-73
2023/03/30 06:14:29;;;;;;;;;;;;;;;8.01;90.98;100373.38;4953250;28;19951;-72
2023/03/30 06:17:19;;;;;;;;;;;;;;;8.03;91.08;100365.91;4958368;28;19938;-73
2023/03/30 06:19:45;;;;;;;;;;;;;;;8.14;91.27;100360.34;4954704;28;19967;-73
2023/03/30 06:22:11;;;;;;;;;;;;;;;8.23;91.29;100359.84;4958680;28;19974;-72
2023/03/30 06:24:51;;;;;;;;;;;;;;;8.35;91.11;100357.75;4955968;28;19947;-73
2023/03/30 06:27:17;;;;;;;;;;;;;;;8.34;91.13;100367.63;4960666;28;19934;-73
2023/03/30 06:29:42;;;;;;;;;;;;;;;8.50;90.77;100371.13;4960287;28;19954;-73
2023/03/30 06:32:08;;;;;;;;;;;;;;;8.57;90.73;100361.00;4943314;28;19934;-73
2023/03/30 06:34:48;;;;;;;;;;;;;;;8.60;90.72;100371.16;4947400;28;20917;-73
2023/03/30 06:37:14;;;;;;;;;;;;;;;8.63;90.49;100359.94;4958486;28;20436;-73
2023/03/30 06:39:40;;;;;;;;;;;;;;;8.79;90.10;100358.06;4955904;28;20045;-72
2023/03/30 06:42:06;;;;;;;;;;;;;;;8.95;89.83;100373.03;4959276;28;20418;-71
2023/03/30 06:44:55;;;;;;;;;;;;;;;9.29;89.69;100361.78;4956857;28;20295;-74
2023/03/30 06:47:21;;;;;;;;;;;;;;;9.26;89.63;100362.31;4959277;28;19945;-73
2023/03/30 06:49:47;;;;;;;;;;;;;;;9.18;89.77;100365.53;4978935;28;19952;-73
2023/03/30 06:52:12;;;;;;;;;;;;;;;9.29;89.95;100359.13;4959086;28;19940;-73
2023/03/30 06:54:41;;;;;;;;;;;;;;;9.34;89.76;100359.09;4955111;28;20035;-74
2023/03/30 06:57:07;;;;;;;;;;;;;;;9.59;89.41;100358.25;4944350;28;19932;-73
2023/03/30 06:59:33;;;;;;;;;;;;;;;9.72;89.07;100359.53;4943468;28;19956;-73
2023/03/30 07:02:28;;;;;;;;;;;;;;;9.96;88.37;100344.47;4956720;28;20071;-73
2023/03/30 07:05:23;;;;;;;;;;;;;;;10.10;87.26;100348.16;4947681;28;19992;-74
2023/03/30 07:08:14;;;;;;;;;;;;;;;10.34;87.27;100350.16;4964777;28;19942;-74
2023/03/30 07:10:47;;;;;;;;;;;;;;;10.43;86.13;100353.88;4960978;28;20342;-74
2023/03/30 07:13:15;;;;;;;;;;;;;;;10.71;85.28;100346.19;4945009;28;19939;-74
2023/03/30 07:15:42;;;;;;;;;;;;;;;10.84;84.57;100349.03;4961228;28;19961;-74
2023/03/30 07:18:07;;;;;;;;;;;;;;;11.20;82.21;100351.38;4950152;28;19939;-74
2023/03/30 07:20:33;;;;;;;;;;;;;;;11.26;82.21;100349.44;4982159;28;20437;-73
2023/03/30 07:23:15;;;;;;;;;;;;;;;11.09;82.84;100350.66;4962970;28;20451;-73
2023/03/30 07:25:41;;;;;;;;;;;;;;;11.05;82.58;100360.38;4982837;28;19968;-74
2023/03/30 07:28:13;;;;;;;;;;;;;;;10.99;82.80;100358.81;4942210;28;20030;-74
2023/03/30 07:30:39;;;;;;;;;;;;;;;10.96;82.38;100355.88;4946119;28;20040;-74
2023/03/30 07:33:06;;;;;;;;;;;;;;;10.99;82.02;100353.44;4963841;28;19941;-74
2023/03/30 07:35:32;;;;;;;;;;;;;;;10.85;82.42;100355.19;4935231;28;19972;-73
2023/03/30 07:38:02;;;;;;;;;;;;;;;10.88;82.22;100349.25;4962024;28;21361;-74
2023/03/30 07:40:31;;;;;;;;;;;;;;;10.80;82.20;100358.69;4961829;28;19961;-73
2023/03/30 07:42:57;;;;;;;;;;;;;;;10.78;81.77;100352.81;4962082;28;19964;-73
2023/03/30 07:45:23;;;;;;;;;;;;;;;10.85;81.78;100347.13;4930024;28;20042;-73
2023/03/30 07:47:49;;;;;;;;;;;;;;;10.72;82.25;100361.16;4959884;28;20023;-73
2023/03/30 07:50:15;;;;;;;;;;;;;;;10.60;82.91;100356.97;4946029;28;19992;-73
2023/03/30 07:52:41;;;;;;;;;;;;;;;10.59;83.65;100354.56;4957589;28;20036;-73
2023/03/30 07:55:09;;;;;;;;;;;;;;;10.46;83.83;100357.88;4946846;28;19952;-72
2023/03/30 07:57:48;;;;;;;;;;;;;;;10.51;83.26;100366.66;4940967;28;19964;-73
2023/03/30 08:00:14;;;;;;;;;;;;;;;10.51;83.18;100365.88;4945885;28;19950;-72
2023/03/30 08:03:00;;;;;;;;;;;;;;;10.59;83.36;100368.75;4954880;28;19938;-74
2023/03/30 08:05:27;;;;;;;;;;;;;;;10.72;82.56;100374.56;4962022;28;20052;-72
2023/03/30 08:08:07;;;;;;;;;;;;;;;10.84;82.35;100358.94;4950330;28;19942;-73
2023/03/30 08:10:34;;;;;;;;;;;;;;;10.90;82.26;100363.94;4934032;28;20437;-72
2023/03/30 08:13:01;;;;;;;;;;;;;;;11.09;81.96;100361.38;4959027;28;19968;-73
2023/03/30 08:15:27;;;;;;;;;;;;;;;11.31;81.16;100357.41;4932918;28;20614;-73
2023/03/30 08:17:52;;;;;;;;;;;;;;;11.67;80.22;100355.97;4960772;28;19980;-72
2023/03/30 08:20:18;;;;;;;;;;;;;;;11.83;79.46;100358.50;4962419;28;19952;-72
2023/03/30 08:22:43;;;;;;;;;;;;;;;11.90;79.28;100362.44;4960507;28;20309;-74
2023/03/30 08:25:10;;;;;;;;;;;;;;;11.87;78.49;100354.16;4962396;28;19942;-74
2023/03/30 08:27:36;;;;;;;;;;;;;;;11.85;79.08;100372.41;4962419;28;20419;-74
2023/03/30 08:30:02;;;;;;;;;;;;;;;11.85;78.78;100356.31;4955631;28;19961;-72
2023/03/30 08:32:27;;;;;;;;;;;;;;;11.88;78.16;100361.91;4946286;28;19944;-73
2023/03/30 08:34:55;;;;;;;;;;;;;;;11.93;79.40;100367.22;4964555;28;19962;-73
2023/03/30 08:37:21;;;;;;;;;;;;;;;11.87;78.13;100357.66;4945733;28;20503;-72
2023/03/30 08:39:46;;;;;;;;;;;;;;;11.66;80.52;100365.09;4960799;28;20504;-73
2023/03/30 08:42:26;;;;;;;;;;;;;;;11.35;83.16;100350.41;4961267;28;19932;-73
2023/03/30 08:44:54;;;;;;;;;;;;;;;11.13;84.59;100345.56;4961849;28;20599;-73
2023/03/30 08:47:29;;;;;;;;;;;;;;;11.26;85.66;100341.41;4951522;28;19942;-71
2023/03/30 08:50:21;;;;;;;;;;;;;;;11.47;84.94;100340.09;4948092;28;19976;-72
2023/03/30 08:52:49;;;;;;;;;;;;;;;11.67;85.37;100337.19;4938984;28;20017;-72
2023/03/30 08:55:23;;;;;;;;;;;;;;;11.86;84.54;100333.78;4963077;28;19958;-73
2023/03/30 08:57:54;;;;;;;;;;;;;;;11.86;82.53;100345.31;4964771;28;19988;-75
2023/03/30 09:00:26;;;;;;;;;;;;;;;11.98;83.56;100344.88;4960064;28;19962;-73
2023/03/30 09:02:58;;;;;;;;;;;;;;;12.14;82.61;100334.75;4959334;28;20066;-72
2023/03/30 09:05:28;;;;;;;;;;;;;;;12.40;81.69;100324.47;4957718;28;20833;-73
2023/03/30 09:07:57;;;;;;;;;;;;;;;12.78;80.30;100325.19;4931458;28;20398;-73
2023/03/30 09:10:25;;;;;;;;;;;;;;;12.75;80.00;100321.22;4957977;28;20060;-72
2023/03/30 09:12:53;;;;;;;;;;;;;;;12.81;79.61;100322.72;4959340;28;19991;-73
2023/03/30 09:15:21;;;;;;;;;;;;;;;12.81;79.62;100320.03;4961783;28;20008;-73
2023/03/30 09:17:59;;;;;;;;;;;;;;;13.03;79.59;100322.06;4930384;28;20011;-73
2023/03/30 09:20:27;;;;;;;;;;;;;;;13.55;77.71;100316.59;4962750;28;19957;-73
2023/03/30 09:22:53;;;;;;;;;;;;;;;13.64;76.75;100320.16;4944326;28;19940;-73
2023/03/30 09:25:24;;;;;;;;;;;;;;;13.41;75.12;100327.31;4964865;28;19932;-73
2023/03/30 09:27:57;;;;;;;;;;;;;;;13.16;75.76;100327.78;4956545;28;19999;-75
2023/03/30 09:30:39;;;;;;;;;;;;;;;13.04;75.55;100325.56;4960809;28;20435;-75
2023/03/30 09:33:10;;;;;;;;;;;;;;;12.93;76.36;100324.13;4937637;28;19975;-73
2023/03/30 09:35:40;;;;;;;;;;;;;;;13.16;76.02;100330.47;4939140;28;19961;-75
2023/03/30 09:38:11;;;;;;;;;;;;;;;13.76;73.92;100320.44;4958338;28;19944;-72
2023/03/30 09:40:47;;;;;;;;;;;;;;;13.97;73.31;100326.19;4957351;28;20023;-74
2023/03/30 09:43:22;;;;;;;;;;;;;;;13.92;73.05;100329.78;4955205;28;20338;-73
2023/03/30 09:45:48;;;;;;;;;;;;;;;13.65;72.92;100335.19;4962500;28;20677;-74
2023/03/30 09:48:15;;;;;;;;;;;;;;;13.34;72.18;100338.50;4955815;28;20424;-74
2023/03/30 09:50:42;;;;;;;;;;;;;;;13.48;73.76;100332.28;4941621;28;19949;-72
2023/03/30 09:53:35;;;;;;;;;;;;;;;13.75;71.09;100326.94;4941902;28;19988;-73
2023/03/30 09:56:08;;;;;;;;;;;;;;;13.86;72.01;100322.91;4957018;28;19961;-73
2023/03/30 09:58:34;;;;;;;;;;;;;;;13.58;71.32;100322.16;4959815;28;19938;-74
2023/03/30 10:01:06;;;;;;;;;;;;;;;13.34;72.33;100327.72;4957296;28;19961;-73
2023/03/30 10:03:31;;;;;;;;;;;;;;;13.21;73.69;100312.38;4940608;28;20007;-73
2023/03/30 10:06:02;;;;;;;;;;;;;;;13.18;72.57;100318.31;4955000;28;20406;-72
2023/03/30 10:08:28;;;;;;;;;;;;;;;13.08;72.42;100316.63;4928388;28;19960;-73
2023/03/30 10:10:54;;;;;;;;;;;;;;;13.00;73.02;100324.53;4960572;28;20047;-72
2023/03/30 10:13:25;;;;;;;;;;;;;;;12.92;74.77;100319.84;4976259;28;19944;-73
2023/03/30 10:15:52;;;;;;;;;;;;;;;12.92;74.85;100322.53;4945320;28;20601;-73
2023/03/30 10:18:26;;;;;;;;;;;;;;;13.13;75.47;100321.06;4958741;28;19942;-71
2023/03/30 10:21:03;;;;;;;;;;;;;;;13.63;74.70;100326.63;4961979;28;20630;-72
2023/03/30 10:23:32;;;;;;;;;;;;;;;13.73;73.24;100318.34;4951119;28;19942;-72
2023/03/30 10:26:02;;;;;;;;;;;;;;;13.83;73.92;100317.34;4964561;28;19949;-73
2023/03/30 10:28:30;;;;;;;;;;;;;;;13.92;72.54;100313.63;4964634;28;19938;-72
2023/03/30 10:31:01;;;;;;;;;;;;;;;13.94;72.88;100297.97;4964860;28;19968;-73
2023/03/30 10:33:28;;;;;;;;;;;;;;;13.70;72.45;100307.41;4978228;28;20411;-73
2023/03/30 10:35:56;;;;;;;;;;;;;;;13.77;72.50;100302.41;4943592;28;19958;-74
2023/03/30 10:38:22;;;;;;;;;;;;;;;13.93;71.62;100304.47;4975675;28;19944;-73
2023/03/30 10:40:54;;;;;;;;;;;;;;;14.06;70.28;100310.13;4960381;28;19958;-74
2023/03/30 10:43:23;;;;;;;;;;;;;;;14.33;69.26;100299.25;4962153;28;19946;-73
2023/03/30 10:45:50;;;;;;;;;;;;;;;14.74;69.66;100290.22;4961521;28;19945;-73
2023/03/30 10:48:26;;;;;;;;;;;;;;;15.18;68.38;100291.25;4958610;28;20021;-75
2023/03/30 10:50:57;;;;;;;;;;;;;;;15.18;67.52;100292.06;4955440;28;20069;-75
2023/03/30 10:53:23;;;;;;;;;;;;;;;15.21;67.09;100275.22;4963469;28;19953;-73
2023/03/30 10:55:58;;;;;;;;;;;;;;;15.23;63.85;100296.50;4958511;28;19962;-72
2023/03/30 10:58:34;;;;;;;;;;;;;;;15.35;64.28;100279.72;4960207;28;19944;-72
2023/03/30 11:01:15;;;;;;;;;;;;;;;15.62;62.36;100281.41;4961421;28;20446;-73
2023/03/30 11:03:44;;;;;;;;;;;;;;;15.52;61.47;100290.59;4961905;28;20672;-73
2023/03/30 11:06:15;;;;;;;;;;;;;;;15.31;61.79;100282.28;4957697;28;19966;-74
2023/03/30 11:08:43;;;;;;;;;;;;;;;15.14;62.89;100291.06;4963986;28;20373;-74
2023/03/30 11:11:19;;;;;;;;;;;;;;;14.74;63.30;100304.50;4960513;28;19962;-74
2023/03/30 11:13:48;;;;;;;;;;;;;;;14.47;61.67;100300.03;4960564;28;20015;-74
2023/03/30 11:16:24;;;;;;;;;;;;;;;14.21;62.07;100297.09;4961381;28;19964;-73
2023/03/30 11:19:01;;;;;;;;;;;;;;;14.15;62.03;100297.53;4957639;28;19940;-75
2023/03/30 11:21:33;;;;;;;;;;;;;;;14.54;62.63;100293.41;4928018;28;20435;-73
2023/03/30 11:24:06;;;;;;;;;;;;;;;14.83;61.37;100296.44;4962802;28;20007;-73
2023/03/30 11:26:39;;;;;;;;;;;;;;;14.95;61.98;100304.78;4957283;28;20314;-73
2023/03/30 11:29:30;;;;;;;;;;;;;;;14.83;60.94;100296.44;4961955;28;19973;-74
2023/03/30 11:32:14;;;;;;;;;;;;;;;14.77;62.35;100297.72;4962272;28;19936;-74
2023/03/30 11:34:57;;;;;;;;;;;;;;;14.64;62.33;100303.97;4957263;28;19956;-72
2023/03/30 11:37:30;;;;;;;;;;;;;;;14.74;61.50;100304.50;4945475;28;19949;-75
2023/03/30 11:40:00;;;;;;;;;;;;;;;14.93;59.67;100282.72;4950120;28;19960;-72
2023/03/30 11:42:28;;;;;;;;;;;;;;;15.35;60.01;100296.72;4960685;28;20321;-72
2023/03/30 11:44:54;;;;;;;;;;;;;;;15.45;60.89;100299.13;4962277;28;19937;-72
2023/03/30 11:47:20;;;;;;;;;;;;;;;15.21;58.29;100290.63;4947910;28;20029;-72
2023/03/30 11:49:53;;;;;;;;;;;;;;;14.90;58.29;100291.44;4959351;28;20045;-73
2023/03/30 11:52:26;;;;;;;;;;;;;;;14.92;59.27;100291.94;4956620;28;19948;-73
2023/03/30 11:55:09;;;;;;;;;;;;;;;14.86;58.78;100293.16;4962144;28;19952;-73
2023/03/30 11:57:43;;;;;;;;;;;;;;;14.90;58.04;100296.84;4976212;28;19946;-74
2023/03/30 12:00:21;;;;;;;;;;;;;;;14.92;59.00;100294.63;4972078;28;19966;-74
2023/03/30 12:02:57;;;;;;;;;;;;;;;15.00;58.47;100284.97;4958783;28;19994;-74
2023/03/30 12:05:29;;;;;;;;;;;;;;;15.03;56.46;100287.84;4945777;28;19945;-72
2023/03/30 12:08:11;;;;;;;;;;;;;;;15.39;56.38;100297.69;4964681;28;20411;-72
2023/03/30 12:10:41;;;;;;;;;;;;;;;16.37;54.51;100297.22;4963526;28;19964;-72
2023/03/30 12:13:11;;;;;;;;;;;;;;;16.46;54.69;100302.63;4963282;28;19959;-73
2023/03/30 12:15:43;;;;;;;;;;;;;;;16.08;55.42;100297.84;4961798;28;19958;-73
2023/03/30 12:18:15;;;;;;;;;;;;;;;15.00;58.07;100306.56;4950221;28;19976;-72
2023/03/30 12:20:41;;;;;;;;;;;;;;;14.59;60.78;100317.56;4979463;28;20003;-73
2023/03/30 12:23:22;;;;;;;;;;;;;;;14.36;59.78;100319.41;4964313;28;19941;-72
2023/03/30 12:26:06;;;;;;;;;;;;;;;13.99;60.98;100339.34;4975493;28;19936;-74
2023/03/30 12:28:39;;;;;;;;;;;;;;;13.90;62.60;100355.44;4930354;28;20110;-74
2023/03/30 12:31:05;;;;;;;;;;;;;;;14.42;62.44;100340.53;4961154;28;19994;-73
2023/03/30 12:33:45;;;;;;;;;;;;;;;14.83;62.10;100336.88;4963478;28;20367;-73
2023/03/30 12:36:21;;;;;;;;;;;;;;;14.71;61.95;100342.06;4973886;28;19960;-74
2023/03/30 12:38:48;;;;;;;;;;;;;;;14.53;64.15;100351.13;4958111;28;19940;-73
2023/03/30 12:41:19;;;;;;;;;;;;;;;14.51;64.36;100348.72;4955912;28;19946;-73
2023/03/30 12:44:13;;;;;;;;;;;;;;;14.23;65.83;100358.75;4926560;29;19944;-74
2023/03/30 12:46:48;;;;;;;;;;;;;;;14.18;66.29;100366.94;4960631;28;19973;-74
2023/03/30 12:49:29;;;;;;;;;;;;;;;14.20;66.07;100360.16;4939854;28;20412;-74
2023/03/30 12:52:03;;;;;;;;;;;;;;;15.03;66.28;100357.94;4936554;28;20410;-73
2023/03/30 12:54:28;;;;;;;;;;;;;;;15.92;61.67;100358.84;4957393;28;19989;-74
2023/03/30 12:56:54;;;;;;;;;;;;;;;15.90;60.66;100361.03;4961337;28;20403;-74
2023/03/30 12:59:38;;;;;;;;;;;;;;;15.74;62.07;100355.28;4952605;28;19962;-74
2023/03/30 13:02:24;;;;;;;;;;;;;;;15.78;61.71;100363.53;4958651;28;20047;-72
2023/03/30 13:04:50;;;;;;;;;;;;;;;14.88;64.08;100355.63;4961137;28;19944;-73
2023/03/30 13:07:21;;;;;;;;;;;;;;;14.59;65.16;100361.47;4956756;28;20278;-72
2023/03/30 13:09:50;;;;;;;;;;;;;;;14.44;66.34;100359.91;4963668;28;19965;-72
2023/03/30 13:12:23;;;;;;;;;;;;;;;14.63;65.50;100367.84;4964450;28;19935;-73
2023/03/30 13:14:57;;;;;;;;;;;;;;;14.43;65.55;100369.09;4957797;28;19957;-73